Time;durP1;ratioP1;P1;durP2;ratioP2;P2;SDS_P1;SDS_P2;PMS_P1;PMS_P2;Temp;Humidity;BMP_temperature;BMP_pressure;BME280_temperature;BME280_humidity;BME280_pressure;Samples;Min_cycle;Max_cycle;Signal;HPM_P1;HPM_P2
2023/07/28 00:00:05;;;;;;;5.80;4.60;;;;;;;19.20;100.00;97492.44;4155932;28;20686;-80
2023/07/28 00:02:12;;;;;;;6.43;4.30;;;;;;;19.17;100.00;97492.78;4143230;28;20719;-81
2023/07/28 00:04:15;;;;;;;6.40;4.30;;;;;;;19.17;100.00;97490.13;4158484;28;20706;-80
2023/07/28 00:06:18;;;;;;;5.30;4.67;;;;;;;19.18;100.00;97492.59;4157844;28;20678;-81
2023/07/28 00:08:22;;;;;;;7.63;4.77;;;;;;;19.17;100.00;97488.34;4155810;28;21215;-80
2023/07/28 00:10:25;;;;;;;7.83;4.20;;;;;;;19.16;100.00;97491.97;4126800;28;20653;-81
2023/07/28 00:12:28;;;;;;;6.17;4.60;;;;;;;19.14;100.00;97498.41;4155129;28;20689;-80
2023/07/28 00:14:31;;;;;;;5.20;4.50;;;;;;;19.12;100.00;97500.41;4138326;28;20652;-81
2023/07/28 00:16:35;;;;;;;6.87;4.80;;;;;;;19.09;100.00;97496.31;4154002;28;20704;-80
2023/07/28 00:18:38;;;;;;;4.80;4.30;;;;;;;19.09;100.00;97500.75;4143509;28;20647;-81
2023/07/28 00:20:42;;;;;;;7.37;4.10;;;;;;;19.10;100.00;97502.41;4142032;28;20648;-80
2023/07/28 00:22:44;;;;;;;5.30;4.80;;;;;;;19.10;100.00;97507.69;4145908;28;20659;-80
2023/07/28 00:24:47;;;;;;;4.90;4.30;;;;;;;19.09;100.00;97498.09;4155018;28;20668;-80
2023/07/28 00:26:50;;;;;;;5.80;4.30;;;;;;;19.09;100.00;97498.09;4127913;28;20676;-81
2023/07/28 00:28:52;;;;;;;5.20;4.50;;;;;;;19.09;100.00;97501.59;4141310;28;20635;-81
2023/07/28 00:30:55;;;;;;;6.80;5.80;;;;;;;19.09;100.00;97493.66;4139598;28;20687;-80
2023/07/28 00:33:01;;;;;;;6.20;4.40;;;;;;;19.09;100.00;97492.81;4159396;28;20647;-80
2023/07/28 00:35:03;;;;;;;5.27;4.60;;;;;;;19.07;100.00;97482.41;4119015;28;20703;-80
2023/07/28 00:37:08;;;;;;;5.40;4.67;;;;;;;19.06;100.00;97491.38;4123267;28;20683;-80
2023/07/28 00:39:11;;;;;;;5.37;4.10;;;;;;;19.05;100.00;97488.88;4154545;28;20663;-81
2023/07/28 00:41:15;;;;;;;6.13;5.00;;;;;;;19.06;100.00;97490.53;4124009;28;20651;-80
2023/07/28 00:43:18;;;;;;;6.17;4.67;;;;;;;19.05;100.00;97480.97;4154913;28;21245;-80
2023/07/28 00:45:21;;;;;;;5.53;4.40;;;;;;;19.04;100.00;97485.41;4143233;28;20662;-80
2023/07/28 00:47:25;;;;;;;4.77;4.20;;;;;;;19.03;100.00;97481.13;4157949;28;21291;-80
2023/07/28 00:49:30;;;;;;;6.13;4.27;;;;;;;19.02;100.00;97474.19;4124446;28;21013;-81
2023/07/28 00:51:34;;;;;;;5.67;4.87;;;;;;;19.01;100.00;97476.97;4132744;28;20710;-80
2023/07/28 00:53:37;;;;;;;6.50;4.27;;;;;;;19.00;100.00;97475.31;4146767;28;20735;-80
2023/07/28 00:55:42;;;;;;;4.80;4.30;;;;;;;18.98;100.00;97479.94;4161966;28;20708;-80
2023/07/28 00:57:44;;;;;;;5.10;4.17;;;;;;;18.96;100.00;97474.84;4138804;28;20740;-80
2023/07/28 00:59:47;;;;;;;6.73;5.60;;;;;;;18.95;100.00;97480.28;4139098;28;20658;-81
2023/07/28 01:04:33;;;;;;;6.20;4.27;;;;;;;18.93;100.00;97479.66;2945197;22;21102;-80
2023/07/28 01:06:42;;;;;;;5.63;4.90;;;;;;;18.92;100.00;97488.56;4133274;28;20707;-82
2023/07/28 01:08:49;;;;;;;5.40;4.53;;;;;;;18.93;100.00;97493.69;4131611;28;21581;-83
2023/07/28 01:10:52;;;;;;;6.83;4.70;;;;;;;18.90;100.00;97488.72;4135187;28;20668;-82
2023/07/28 01:12:56;;;;;;;4.77;4.27;;;;;;;18.88;100.00;97487.25;4156246;28;20658;-82
2023/07/28 01:14:59;;;;;;;5.80;4.53;;;;;;;18.87;100.00;97492.69;4157219;28;21301;-83
2023/07/28 01:17:02;;;;;;;5.00;4.30;;;;;;;18.82;100.00;97493.22;4152153;28;20635;-83
2023/07/28 01:19:05;;;;;;;5.73;4.60;;;;;;;18.79;100.00;97488.25;4124378;28;20673;-82
2023/07/28 01:21:15;;;;;;;6.40;4.90;;;;;;;18.78;100.00;97485.78;4139502;28;20697;-82
2023/07/28 01:23:19;;;;;;;4.80;4.10;;;;;;;18.76;100.00;97491.25;4147783;28;20739;-82
2023/07/28 01:25:29;;;;;;;4.30;3.80;;;;;;;18.75;100.00;97497.53;4124143;28;20634;-83
2023/07/28 01:27:34;;;;;;;5.13;3.90;;;;;;;18.73;100.00;97496.88;4131487;28;20636;-82
2023/07/28 01:29:38;;;;;;;5.33;4.13;;;;;;;18.73;100.00;97496.06;4152603;28;20638;-82
2023/07/28 01:31:42;;;;;;;6.70;4.53;;;;;;;18.71;100.00;97485.66;4133487;28;20635;-82
2023/07/28 01:33:45;;;;;;;6.47;4.90;;;;;;;18.71;100.00;97485.66;4117669;28;20636;-82
2023/07/28 01:35:48;;;;;;;4.73;4.23;;;;;;;18.68;100.00;97483.34;4139742;28;20656;-82
2023/07/28 01:37:51;;;;;;;8.73;4.97;;;;;;;18.68;100.00;97480.69;4123145;28;20629;-82
2023/07/28 01:39:54;;;;;;;5.83;4.77;;;;;;;18.68;100.00;97479.88;4132661;28;20724;-82
2023/07/28 01:41:58;;;;;;;6.13;4.90;;;;;;;18.66;100.00;97477.41;4139386;28;20632;-82
2023/07/28 01:44:05;;;;;;;7.17;4.70;;;;;;;18.65;100.00;97481.03;4123863;28;21094;-82
2023/07/28 01:46:08;;;;;;;7.43;5.37;;;;;;;18.65;100.00;97482.88;4121049;28;20723;-83
2023/07/28 01:48:11;;;;;;;5.77;4.60;;;;;;;18.63;100.00;97475.09;4119747;28;20692;-83
2023/07/28 01:50:14;;;;;;;7.57;5.23;;;;;;;18.61;100.00;97469.19;4129498;28;20648;-82
2023/07/28 01:52:18;;;;;;;6.40;4.87;;;;;;;18.59;100.00;97473.78;4129958;28;20675;-82
2023/07/28 01:54:22;;;;;;;6.30;4.70;;;;;;;18.58;100.00;97477.44;4130767;28;20635;-82
2023/07/28 01:56:25;;;;;;;9.43;5.20;;;;;;;18.57;100.00;97478.41;4119372;28;20643;-82
2023/07/28 01:58:28;;;;;;;6.50;4.83;;;;;;;18.55;100.00;97475.13;4150948;28;20635;-83
2023/07/28 02:00:33;;;;;;;5.87;4.47;;;;;;;18.56;100.00;97476.75;4138201;28;20730;-82
2023/07/28 02:02:35;;;;;;;7.57;4.90;;;;;;;18.54;100.00;97472.66;4134467;28;20637;-83
2023/07/28 02:04:38;;;;;;;6.47;5.00;;;;;;;18.54;100.00;97475.31;4134472;28;20672;-83
2023/07/28 02:06:41;;;;;;;8.93;4.20;;;;;;;18.53;100.00;97478.94;4151552;28;21268;-81
2023/07/28 02:08:43;;;;;;;7.30;4.17;;;;;;;18.51;100.00;97478.28;4151079;28;20640;-82
2023/07/28 02:10:46;;;;;;;17.70;4.63;;;;;;;18.46;100.00;97473.50;4120088;28;20645;-82
2023/07/28 02:12:50;;;;;;;7.77;4.50;;;;;;;18.44;100.00;97472.81;4150613;28;21107;-82
2023/07/28 02:14:53;;;;;;;7.13;3.70;;;;;;;18.41;100.00;97467.06;4138237;28;20652;-82
2023/07/28 02:16:58;;;;;;;7.00;4.10;;;;;;;18.38;100.00;97470.03;4137330;28;20626;-82
2023/07/28 02:19:01;;;;;;;5.93;4.00;;;;;;;18.37;100.00;97470.22;4128931;28;20651;-82
2023/07/28 02:21:04;;;;;;;5.23;3.90;;;;;;;18.35;100.00;97469.56;4149944;28;20636;-82
2023/07/28 02:23:07;;;;;;;4.57;4.13;;;;;;;18.35;100.00;97473.00;4142026;28;20674;-82
2023/07/28 02:25:11;;;;;;;4.43;3.80;;;;;;;18.35;100.00;97466.91;4137472;28;20637;-82
2023/07/28 02:27:15;;;;;;;4.97;3.67;;;;;;;18.33;100.00;97469.72;4140239;28;21097;-82
2023/07/28 02:29:18;;;;;;;4.37;3.50;;;;;;;18.30;100.00;97471.88;4139413;28;20624;-82
2023/07/28 02:31:21;;;;;;;7.80;3.97;;;;;;;18.26;100.00;97473.19;4137353;28;20725;-82
2023/07/28 02:33:29;;;;;;;4.90;4.17;;;;;;;18.24;100.00;97464.63;4124323;28;21186;-82
2023/07/28 02:35:32;;;;;;;4.70;4.20;;;;;;;18.23;100.00;97468.25;4138571;28;21496;-82
2023/07/28 02:37:35;;;;;;;4.77;4.10;;;;;;;18.22;100.00;97472.72;4137534;28;20632;-82
2023/07/28 02:39:37;;;;;;;4.60;3.73;;;;;;;18.23;100.00;97473.53;4122547;28;20721;-82
2023/07/28 02:41:40;;;;;;;5.50;4.10;;;;;;;18.24;100.00;97475.19;4134209;28;20635;-82
2023/07/28 02:43:44;;;;;;;5.20;3.50;;;;;;;18.24;100.00;97472.56;4136215;28;20636;-82
2023/07/28 02:45:49;;;;;;;4.00;3.53;;;;;;;18.23;100.00;97482.28;4151234;28;20677;-82
2023/07/28 02:47:52;;;;;;;4.23;3.53;;;;;;;18.21;100.00;97473.69;4124466;28;20687;-82
2023/07/28 02:49:57;;;;;;;5.27;3.53;;;;;;;18.19;100.00;97483.63;4120855;28;20664;-83
2023/07/28 02:52:00;;;;;;;5.43;3.93;;;;;;;18.16;100.00;97472.53;4121571;28;20636;-82
2023/07/28 02:54:03;;;;;;;3.90;3.50;;;;;;;18.13;100.00;97473.72;4137609;28;21075;-82
2023/07/28 02:56:06;;;;;;;5.40;3.33;;;;;;;18.14;100.00;97483.25;4143058;28;20650;-82
2023/07/28 02:58:09;;;;;;;5.07;3.57;;;;;;;18.13;100.00;97486.91;4136592;28;20627;-82
2023/07/28 03:00:14;;;;;;;3.97;3.07;;;;;;;18.13;100.00;97488.72;4123377;28;20642;-82
2023/07/28 03:02:17;;;;;;;3.73;2.97;;;;;;;18.13;100.00;97480.78;4139395;28;20751;-83
2023/07/28 03:04:21;;;;;;;4.57;3.47;;;;;;;18.11;100.00;97478.28;4151440;28;20690;-82
2023/07/28 03:06:57;;;;;;;4.23;3.40;;;;;;;18.11;100.00;97495.94;4127323;28;20657;-82
2023/07/28 03:09:01;;;;;;;4.10;3.17;;;;;;;18.12;100.00;97500.25;4153148;28;20638;-82
2023/07/28 03:11:23;;;;;;;4.50;3.40;;;;;;;18.10;100.00;97500.41;4134991;28;21275;-82
2023/07/28 03:13:26;;;;;;;4.17;3.17;;;;;;;18.10;100.00;97502.19;4130250;28;20629;-82
2023/07/28 03:15:29;;;;;;;4.80;3.67;;;;;;;18.11;100.00;97511.78;4135137;28;20714;-83
2023/07/28 03:17:33;;;;;;;3.70;2.97;;;;;;;18.13;100.00;97515.09;4137044;28;21261;-82
2023/07/28 03:19:36;;;;;;;3.77;2.80;;;;;;;18.14;100.00;97516.78;4131337;28;20620;-82
2023/07/28 03:21:39;;;;;;;3.57;3.17;;;;;;;18.15;100.00;97526.34;4140376;28;21123;-82
2023/07/28 03:23:45;;;;;;;3.70;3.27;;;;;;;18.17;100.00;97527.00;4124173;28;21049;-82
2023/07/28 03:25:48;;;;;;;3.90;3.33;;;;;;;18.15;100.00;97531.63;4132520;28;20685;-82
2023/07/28 03:27:52;;;;;;;5.87;3.97;;;;;;;18.13;100.00;97525.66;4123983;28;20632;-82
2023/07/28 03:29:56;;;;;;;5.47;3.73;;;;;;;18.14;100.00;97528.13;4131970;28;21195;-83
2023/07/28 03:32:00;;;;;;;6.70;4.33;;;;;;;18.13;100.00;97526.50;4134387;28;21194;-83
2023/07/28 03:34:03;;;;;;;4.87;3.67;;;;;;;18.16;100.00;97539.38;4137868;28;21220;-83
2023/07/28 03:36:08;;;;;;;4.93;4.17;;;;;;;18.16;100.00;97546.47;4151284;28;21461;-82
2023/07/28 03:38:12;;;;;;;4.67;3.07;;;;;;;18.16;100.00;97549.09;4133810;28;20691;-83
2023/07/28 03:40:17;;;;;;;5.00;3.60;;;;;;;18.15;100.00;97558.84;4130784;28;20673;-82
2023/07/28 03:42:25;;;;;;;4.50;3.67;;;;;;;18.16;100.00;97554.38;4121275;28;20632;-82
2023/07/28 03:44:27;;;;;;;3.80;3.10;;;;;;;18.16;100.00;97551.75;4131326;28;20709;-83
2023/07/28 03:46:30;;;;;;;4.30;3.40;;;;;;;18.13;100.00;97557.34;4128262;28;20724;-82
2023/07/28 03:48:33;;;;;;;4.77;3.30;;;;;;;18.11;100.00;97564.56;4138853;28;20635;-84
2023/07/28 03:50:37;;;;;;;6.37;5.70;;;;;;;18.08;100.00;97559.63;4148961;28;20628;-83
2023/07/28 03:52:40;;;;;;;4.97;3.80;;;;;;;18.07;100.00;97566.72;4120369;28;20625;-82
2023/07/28 03:54:43;;;;;;;5.27;3.90;;;;;;;18.08;100.00;97562.25;4122561;28;20671;-83
2023/07/28 03:56:48;;;;;;;5.40;4.23;;;;;;;18.07;100.00;97568.53;4131517;28;20675;-82
2023/07/28 03:58:51;;;;;;;4.33;3.50;;;;;;;18.09;100.00;97582.41;4123741;28;20671;-82
2023/07/28 04:00:54;;;;;;;4.20;3.07;;;;;;;18.10;100.00;97581.41;4138303;28;20733;-82
2023/07/28 04:02:58;;;;;;;7.83;3.70;;;;;;;18.11;100.00;97581.22;4138706;28;21120;-83
2023/07/28 04:05:02;;;;;;;4.80;3.63;;;;;;;18.13;100.00;97578.47;4139601;28;20690;-82
2023/07/28 04:07:06;;;;;;;4.20;3.23;;;;;;;18.15;100.00;97572.03;4157319;28;20653;-81
2023/07/28 04:09:10;;;;;;;5.63;3.00;;;;;;;18.17;100.00;97569.25;4153993;28;20638;-81
2023/07/28 04:11:13;;;;;;;6.80;3.73;;;;;;;18.20;100.00;97574.19;4155544;28;20697;-82
2023/07/28 04:13:17;;;;;;;3.90;3.20;;;;;;;18.20;100.00;97569.72;4135428;28;20731;-82
2023/07/28 04:15:21;;;;;;;4.17;3.73;;;;;;;18.18;100.00;97565.63;4124210;28;20715;-83
2023/07/28 04:17:24;;;;;;;4.70;3.63;;;;;;;18.17;100.00;97561.31;4155189;28;20759;-82
2023/07/28 04:19:28;;;;;;;3.87;3.43;;;;;;;18.14;100.00;97559.00;4137383;28;20727;-82
2023/07/28 04:21:32;;;;;;;5.43;3.70;;;;;;;18.14;100.00;97561.66;4129266;28;20668;-82
2023/07/28 04:23:35;;;;;;;3.80;3.40;;;;;;;18.12;100.00;97556.50;4133924;28;20723;-82
2023/07/28 04:25:39;;;;;;;3.70;3.23;;;;;;;18.12;100.00;97560.97;4150084;28;20646;-82
2023/07/28 04:27:42;;;;;;;4.80;3.63;;;;;;;18.11;100.00;97559.31;4122236;28;20652;-82
2023/07/28 04:29:46;;;;;;;3.67;2.70;;;;;;;18.12;100.00;97561.78;4152788;28;20640;-82
2023/07/28 04:31:55;;;;;;;4.30;3.47;;;;;;;18.15;100.00;97565.94;4155635;28;20623;-82
2023/07/28 04:34:05;;;;;;;3.63;3.13;;;;;;;18.16;100.00;97567.56;4139520;28;20735;-83
2023/07/28 04:36:30;;;;;;;4.43;3.57;;;;;;;18.18;100.00;97552.41;4137786;28;20670;-82
2023/07/28 04:38:34;;;;;;;5.57;3.70;;;;;;;18.20;100.00;97553.06;4137587;28;20666;-82
2023/07/28 04:40:38;;;;;;;4.37;3.70;;;;;;;18.20;100.00;97561.81;4123638;28;20651;-82
2023/07/28 04:42:42;;;;;;;4.07;3.37;;;;;;;18.22;100.00;97556.38;4126397;28;20645;-82
2023/07/28 04:44:47;;;;;;;4.20;3.50;;;;;;;18.22;100.00;97562.50;4138146;28;20630;-82
2023/07/28 04:46:52;;;;;;;5.40;3.47;;;;;;;18.23;100.00;97558.84;4138218;28;20663;-82
2023/07/28 04:48:56;;;;;;;3.97;3.57;;;;;;;18.25;100.00;97562.16;4125794;28;20632;-83
2023/07/28 04:51:18;;;;;;;4.67;3.77;;;;;;;18.28;100.00;97555.72;4134636;28;20643;-83
2023/07/28 04:53:41;;;;;;;4.17;3.50;;;;;;;18.27;100.00;97549.59;4141463;28;21497;-83
2023/07/28 04:55:47;;;;;;;4.00;3.13;;;;;;;18.26;100.00;97544.50;4135998;28;20658;-82
2023/07/28 04:57:50;;;;;;;6.07;3.50;;;;;;;18.27;100.00;97554.06;4124400;28;20763;-82
2023/07/28 04:59:56;;;;;;;4.83;3.80;;;;;;;18.28;100.00;97550.44;4138258;28;20639;-83
2023/07/28 05:01:59;;;;;;;3.87;3.40;;;;;;;18.30;100.00;97540.53;4136844;28;20719;-82
2023/07/28 05:04:02;;;;;;;4.70;4.03;;;;;;;18.30;100.00;97541.34;4138578;28;20711;-83
2023/07/28 05:06:07;;;;;;;6.67;4.00;;;;;;;18.32;100.00;97554.41;4135912;28;20678;-82
2023/07/28 05:08:09;;;;;;;5.10;3.90;;;;;;;18.34;100.00;97555.03;4137121;28;21173;-82
2023/07/28 05:10:12;;;;;;;7.27;4.10;;;;;;;18.34;100.00;97557.69;4142484;28;20676;-83
2023/07/28 05:12:15;;;;;;;6.60;4.33;;;;;;;18.37;100.00;97560.00;4138406;28;20645;-82
2023/07/28 05:14:22;;;;;;;4.90;3.60;;;;;;;18.41;100.00;97561.31;4118147;28;20720;-82
2023/07/28 05:16:26;;;;;;;3.90;3.50;;;;;;;18.43;100.00;97558.34;4138618;28;20624;-83
2023/07/28 05:18:39;;;;;;;5.13;3.70;;;;;;;18.45;100.00;97563.47;4156612;28;21263;-83
2023/07/28 05:21:11;;;;;;;4.33;3.70;;;;;;;18.46;100.00;97562.47;4088469;28;20666;-83
2023/07/28 05:23:14;;;;;;;5.33;4.20;;;;;;;18.48;100.00;97568.44;4117820;28;21248;-83
2023/07/28 05:25:18;;;;;;;6.37;4.07;;;;;;;18.48;100.00;97561.31;4136374;28;20983;-82
2023/07/28 05:27:20;;;;;;;6.10;4.80;;;;;;;18.50;100.00;97577.81;4124744;28;20640;-82
2023/07/28 05:29:24;;;;;;;5.40;3.97;;;;;;;18.51;100.00;97578.66;4150338;28;20723;-82
2023/07/28 05:31:31;;;;;;;6.40;4.40;;;;;;;18.54;100.00;97581.78;4137063;28;20648;-82
2023/07/28 05:33:34;;;;;;;5.10;4.03;;;;;;;18.58;100.00;97584.91;4143114;28;20690;-83
2023/07/28 05:35:39;;;;;;;4.50;3.87;;;;;;;18.60;100.00;97573.19;4140868;28;21194;-83
2023/07/28 05:37:42;;;;;;;5.03;4.53;;;;;;;18.64;100.00;97584.25;4155752;28;21478;-82
2023/07/28 05:39:45;;;;;;;4.50;3.80;;;;;;;18.66;100.00;97585.75;4122648;28;20645;-83
2023/07/28 05:41:48;;;;;;;5.43;4.10;;;;;;;18.70;100.00;97588.88;4140149;28;20639;-82
2023/07/28 05:43:51;;;;;;;5.53;4.30;;;;;;;18.73;100.00;97589.34;4139955;28;20632;-82
2023/07/28 05:45:54;;;;;;;5.73;3.90;;;;;;;18.76;100.00;97598.78;4153104;28;21237;-82
2023/07/28 05:47:58;;;;;;;5.27;4.30;;;;;;;18.79;100.00;97609.00;4150436;28;20642;-82
2023/07/28 05:50:02;;;;;;;5.30;4.17;;;;;;;18.78;100.00;97602.91;4121705;28;20733;-82
2023/07/28 05:52:08;;;;;;;5.17;4.50;;;;;;;18.80;100.00;97598.28;4156222;28;20628;-83
2023/07/28 05:54:12;;;;;;;5.67;4.23;;;;;;;18.83;100.00;97610.34;4135208;28;20638;-81
2023/07/28 05:56:15;;;;;;;5.53;4.60;;;;;;;18.85;100.00;97609.16;4121174;28;20630;-81
2023/07/28 05:58:19;;;;;;;5.03;4.23;;;;;;;18.87;100.00;97607.19;4136647;28;20644;-81
2023/07/28 06:00:22;;;;;;;7.40;4.43;;;;;;;18.88;100.00;97617.59;4119558;28;20638;-81
2023/07/28 06:02:26;;;;;;;5.13;4.60;;;;;;;18.89;100.00;97610.50;4153599;28;20717;-80
2023/07/28 06:04:33;;;;;;;4.53;4.00;;;;;;;18.92;100.00;97618.09;4122435;28;20665;-80
2023/07/28 06:06:38;;;;;;;5.67;4.20;;;;;;;18.95;100.00;97615.91;4128270;28;20642;-80
2023/07/28 06:08:41;;;;;;;4.77;4.03;;;;;;;18.95;100.00;97620.41;4143002;28;21018;-79
2023/07/28 06:10:44;;;;;;;5.60;4.43;;;;;;;18.94;100.00;97621.38;4129059;28;20651;-80
2023/07/28 06:12:48;;;;;;;8.33;6.90;;;;;;;18.92;100.00;97621.53;4124734;28;20629;-80
2023/07/28 06:14:51;;;;;;;5.97;4.93;;;;;;;18.93;100.00;97617.09;4153660;28;20640;-79
2023/07/28 06:16:56;;;;;;;7.17;4.80;;;;;;;18.94;100.00;97626.66;4127497;28;20713;-79
2023/07/28 06:19:04;;;;;;;4.83;3.80;;;;;;;18.93;100.00;97622.38;4124143;28;20677;-80
2023/07/28 06:21:09;;;;;;;7.63;4.60;;;;;;;18.93;100.00;97627.69;4134968;28;21274;-80
2023/07/28 06:23:12;;;;;;;6.50;4.97;;;;;;;18.95;100.00;97625.69;4134732;28;20633;-79
2023/07/28 06:25:15;;;;;;;6.70;5.30;;;;;;;18.96;100.00;97637.91;4142339;28;21255;-79
2023/07/28 06:27:19;;;;;;;6.97;5.10;;;;;;;18.96;100.00;97641.38;4121984;28;20647;-80
2023/07/28 06:29:22;;;;;;;5.57;4.50;;;;;;;18.95;100.00;97641.53;4133239;28;20640;-80
2023/07/28 06:31:25;;;;;;;5.83;4.70;;;;;;;18.95;100.00;97641.53;4136882;28;20632;-80
2023/07/28 06:33:28;;;;;;;6.40;4.70;;;;;;;18.96;100.00;97643.19;4128486;28;20625;-80
2023/07/28 06:35:31;;;;;;;6.00;4.60;;;;;;;18.95;100.00;97638.91;4140337;28;21071;-80
2023/07/28 06:37:37;;;;;;;7.00;4.77;;;;;;;18.97;100.00;97644.84;4127341;28;21221;-80
2023/07/28 06:39:40;;;;;;;6.60;4.67;;;;;;;18.98;100.00;97651.78;4133965;28;20775;-79
2023/07/28 06:41:43;;;;;;;5.90;4.73;;;;;;;18.99;100.00;97648.97;4121743;28;21098;-80
2023/07/28 06:43:49;;;;;;;10.43;5.63;;;;;;;18.99;100.00;97650.81;4134750;28;20725;-81
2023/07/28 06:45:53;;;;;;;5.40;4.67;;;;;;;19.00;100.00;97652.44;4119843;28;20748;-80
2023/07/28 06:47:56;;;;;;;5.63;4.70;;;;;;;19.01;100.00;97656.75;4149693;28;20624;-79
2023/07/28 06:50:00;;;;;;;12.40;5.40;;;;;;;19.02;100.00;97663.72;4123235;28;20679;-80
2023/07/28 06:52:04;;;;;;;7.10;4.10;;;;;;;19.01;100.00;97660.22;4133242;28;20680;-80
2023/07/28 06:54:12;;;;;;;6.93;4.60;;;;;;;19.00;100.00;97660.38;4147004;28;21217;-79
2023/07/28 06:56:15;;;;;;;6.33;4.80;;;;;;;19.00;100.00;97665.66;4106942;28;20641;-79
2023/07/28 06:58:19;;;;;;;5.67;4.87;;;;;;;18.99;100.00;97670.13;4150242;28;21081;-79
2023/07/28 07:00:23;;;;;;;5.67;4.87;;;;;;;19.00;100.00;97674.44;4120423;28;20653;-79
2023/07/28 07:02:26;;;;;;;6.70;5.10;;;;;;;18.99;100.00;97674.59;4148819;28;21247;-80
2023/07/28 07:04:30;;;;;;;5.60;4.90;;;;;;;19.02;100.00;97674.28;4134319;28;21035;-82
2023/07/28 07:06:33;;;;;;;6.03;5.20;;;;;;;19.04;100.00;97674.94;4136470;28;20635;-81
2023/07/28 07:08:37;;;;;;;5.50;4.50;;;;;;;19.07;100.00;97669.31;4147794;28;20658;-81
2023/07/28 07:10:41;;;;;;;5.40;4.70;;;;;;;19.07;100.00;97659.56;4121873;28;20642;-82
2023/07/28 07:12:45;;;;;;;6.17;5.30;;;;;;;19.13;100.00;97666.00;4146455;28;21001;-82
2023/07/28 07:14:48;;;;;;;5.20;4.70;;;;;;;19.18;100.00;97664.50;4150958;28;20746;-81
2023/07/28 07:16:51;;;;;;;5.43;4.47;;;;;;;19.26;100.00;97677.72;4151873;28;20631;-83
2023/07/28 07:18:54;;;;;;;4.83;4.33;;;;;;;19.35;100.00;97675.88;4139767;28;20640;-81
2023/07/28 07:20:57;;;;;;;6.73;5.13;;;;;;;19.43;100.00;97669.56;4156891;28;20685;-83
2023/07/28 07:23:00;;;;;;;5.93;4.70;;;;;;;19.53;100.00;97669.38;4152534;28;20631;-81
2023/07/28 07:25:04;;;;;;;5.47;4.53;;;;;;;19.65;100.00;97673.31;4118662;28;20673;-82
2023/07/28 07:27:10;;;;;;;5.50;4.30;;;;;;;19.75;100.00;97674.75;4150676;28;20680;-81
2023/07/28 07:29:14;;;;;;;5.90;4.67;;;;;;;19.81;100.00;97684.66;4128047;28;21204;-81
2023/07/28 07:31:16;;;;;;;5.53;4.30;;;;;;;19.83;100.00;97676.56;4132501;28;20658;-83
2023/07/28 07:33:19;;;;;;;5.70;4.67;;;;;;;19.84;100.00;97679.88;4126625;28;20642;-82
2023/07/28 07:35:22;;;;;;;5.80;4.73;;;;;;;19.87;100.00;97679.56;4125737;28;20664;-82
2023/07/28 07:37:25;;;;;;;6.70;4.50;;;;;;;19.90;100.00;97683.66;4151631;28;20632;-82
2023/07/28 07:39:29;;;;;;;7.10;4.20;;;;;;;19.93;100.00;97683.31;4151903;28;20663;-82
2023/07/28 07:41:32;;;;;;;5.50;4.53;;;;;;;19.92;100.00;97682.50;4137893;28;21269;-82
2023/07/28 07:43:37;;;;;;;5.57;4.47;;;;;;;19.96;100.00;97690.94;4147671;28;20626;-82
2023/07/28 07:45:40;;;;;;;5.60;4.33;;;;;;;19.96;100.00;97694.38;4134463;28;21262;-82
2023/07/28 07:47:43;;;;;;;5.10;4.27;;;;;;;19.98;100.00;97695.06;4138522;28;21223;-81
2023/07/28 07:49:47;;;;;;;7.07;4.30;;;;;;;20.02;100.00;97698.19;4141229;28;20666;-82
2023/07/28 07:51:50;;;;;;;6.10;4.40;;;;;;;20.05;100.00;97697.84;4154625;28;20640;-82
2023/07/28 07:53:53;;;;;;;5.00;4.00;;;;;;;20.08;100.00;97697.50;4151419;28;20629;-82
2023/07/28 07:55:57;;;;;;;4.67;4.13;;;;;;;20.07;100.00;97696.69;4146110;28;20645;-81
2023/07/28 07:58:00;;;;;;;5.70;4.20;;;;;;;20.10;100.00;97703.44;4137138;28;20668;-83
2023/07/28 08:00:06;;;;;;;5.30;4.40;;;;;;;20.11;100.00;97700.63;4141959;28;20661;-82
2023/07/28 08:02:14;;;;;;;5.77;4.53;;;;;;;20.10;100.00;97709.59;4157893;28;21178;-83
2023/07/28 08:04:17;;;;;;;4.23;3.53;;;;;;;20.11;100.00;97702.44;4159395;28;20671;-82
2023/07/28 08:06:21;;;;;;;4.30;3.63;;;;;;;20.09;100.00;97705.28;4142626;28;20636;-82
2023/07/28 08:08:24;;;;;;;4.20;3.30;;;;;;;20.07;100.00;97714.38;4142001;28;20645;-82
2023/07/28 08:10:27;;;;;;;4.60;3.90;;;;;;;20.07;100.00;97707.28;4138488;28;20987;-82
2023/07/28 08:12:30;;;;;;;3.93;3.53;;;;;;;20.06;100.00;97710.09;4155762;28;21019;-82
2023/07/28 08:14:34;;;;;;;5.77;4.17;;;;;;;20.06;100.00;97710.09;4154053;28;20635;-79
2023/07/28 08:16:38;;;;;;;4.30;3.30;;;;;;;20.07;100.00;97712.56;4138194;28;20636;-79
2023/07/28 08:18:41;;;;;;;5.20;4.10;;;;;;;20.11;100.00;97716.50;4137794;28;20703;-79
2023/07/28 08:20:44;;;;;;;4.50;3.57;;;;;;;20.14;100.00;97713.50;4155755;28;21202;-79
2023/07/28 08:22:48;;;;;;;3.43;2.80;;;;;;;20.17;100.00;97720.31;4140350;28;20652;-79
2023/07/28 08:24:51;;;;;;;4.67;2.93;;;;;;;20.18;100.00;97719.31;4121679;28;20631;-79
2023/07/28 08:26:54;;;;;;;3.30;2.50;;;;;;;20.19;100.00;97723.59;4152205;28;21141;-79
2023/07/28 08:28:57;;;;;;;3.27;2.70;;;;;;;20.22;100.00;97734.69;4141799;28;20684;-79
2023/07/28 08:31:01;;;;;;;3.50;2.73;;;;;;;20.24;100.00;97730.03;4152905;28;20636;-79
2023/07/28 08:33:05;;;;;;;3.67;2.50;;;;;;;20.27;100.00;97739.47;4135349;28;20725;-79
2023/07/28 08:35:09;;;;;;;2.87;2.40;;;;;;;20.28;100.00;97744.56;4143039;28;20972;-80
2023/07/28 08:37:13;;;;;;;3.20;2.00;;;;;;;20.28;100.00;97738.47;4147812;28;20730;-79
2023/07/28 08:39:16;;;;;;;3.03;2.47;;;;;;;20.30;100.00;97745.25;4135478;28;20669;-80
2023/07/28 08:41:20;;;;;;;4.53;2.47;;;;;;;20.31;100.00;97744.22;4154866;28;20640;-79
2023/07/28 08:43:24;;;;;;;3.80;2.80;;;;;;;20.32;100.00;97736.09;4133335;28;20629;-80
2023/07/28 08:45:28;;;;;;;3.53;2.50;;;;;;;20.35;100.00;97749.00;4131739;28;20631;-79
2023/07/28 08:47:31;;;;;;;3.10;2.47;;;;;;;20.34;100.00;97750.03;4138480;28;20671;-79
2023/07/28 08:49:36;;;;;;;3.00;2.47;;;;;;;20.37;100.00;97743.53;4117694;28;20642;-79
2023/07/28 08:51:42;;;;;;;3.70;2.53;;;;;;;20.43;100.00;97748.97;4123052;28;21535;-82
2023/07/28 08:53:45;;;;;;;3.07;2.33;;;;;;;20.51;100.00;97750.78;4139448;28;20645;-79
2023/07/28 08:55:48;;;;;;;3.00;2.53;;;;;;;20.57;100.00;97760.69;4136025;28;20629;-80
2023/07/28 08:57:51;;;;;;;3.10;2.33;;;;;;;20.61;100.00;97757.50;4135302;28;20629;-80
2023/07/28 08:59:55;;;;;;;2.90;2.40;;;;;;;20.64;100.00;97762.47;4148589;28;20763;-80
2023/07/28 09:02:00;;;;;;;5.03;3.47;;;;;;;20.66;100.00;97756.94;4150632;28;21207;-80
2023/07/28 09:04:03;;;;;;;4.30;3.40;;;;;;;20.71;100.00;97766.06;4141014;28;20677;-80
2023/07/28 09:06:08;;;;;;;3.70;3.17;;;;;;;20.68;100.00;97762.97;4123825;28;20684;-80
2023/07/28 09:08:12;;;;;;;6.30;4.70;;;;;;;20.67;100.00;97756.81;4134595;28;20737;-80
2023/07/28 09:10:16;;;;;;;3.17;2.20;;;;;;;20.75;100.00;97761.25;4150561;28;20728;-80
2023/07/28 09:12:21;;;;;;;3.90;3.23;;;;;;;20.85;100.00;97767.97;4148302;28;20646;-80
2023/07/28 09:14:24;;;;;;;3.37;2.50;;;;;;;20.89;100.00;97763.97;4153707;28;20634;-80
2023/07/28 09:16:29;;;;;;;3.27;2.30;;;;;;;20.89;100.00;97756.84;4152455;28;20632;-80
2023/07/28 09:18:32;;;;;;;4.13;2.40;;;;;;;20.86;100.00;97759.03;4133266;28;20634;-80
2023/07/28 09:20:37;;;;;;;3.20;2.43;;;;;;;20.85;100.00;97760.00;4152874;28;21267;-80
2023/07/28 09:22:42;;;;;;;2.90;2.50;;;;;;;20.83;100.00;97759.38;4155792;28;20672;-78
2023/07/28 09:24:46;;;;;;;2.93;2.30;;;;;;;20.88;100.00;97755.19;4141920;28;21256;-80
2023/07/28 09:26:49;;;;;;;3.20;2.40;;;;;;;20.92;100.00;97758.31;4124542;28;20640;-81
2023/07/28 09:28:52;;;;;;;3.70;2.63;;;;;;;20.97;100.00;97762.09;4151616;28;21226;-82
2023/07/28 09:30:55;;;;;;;3.17;2.47;;;;;;;20.99;100.00;97764.59;4132754;28;21283;-81
2023/07/28 09:32:58;;;;;;;3.17;2.10;;;;;;;21.04;100.00;97760.38;4132310;28;20633;-81
2023/07/28 09:35:09;;;;;;;4.70;2.50;;;;;;;21.13;100.00;97761.97;4138810;28;21212;-81
2023/07/28 09:37:13;;;;;;;3.60;2.63;;;;;;;21.22;100.00;97765.38;4125306;28;20647;-81
2023/07/28 09:39:18;;;;;;;3.50;2.13;;;;;;;21.31;100.00;97757.19;4151951;28;20637;-81